Terminal Aerodrome Forecast
Issued by NWS

Home | Current Version | Previous Version | Text Only | Print | Product List | Glossary On
Versions: 1 2 3 4 5 6 7 8 9 10 11 12 13 14 15 16
000
FTUS44 KMAF 030500
TAFFST
TAF
KFST 030523Z 0306/0406 14017G24KT P6SM SKC
     FM031000 14011KT P6SM SKC
     FM031500 16016G27KT P6SM FEW080 SCT250=

USA.gov is the U.S. government's official web portal to all federal, state and local government web resources and services.